Time;durP1;ratioP1;P1;durP2;ratioP2;P2;SDS_P1;SDS_P2;PMS_P1;PMS_P2;Temp;Humidity;BMP_temperature;BMP_pressure;BME280_temperature;BME280_humidity;BME280_pressure;Samples;Min_cycle;Max_cycle;Signal;HPM_P1;HPM_P2
2022/09/05 00:01:24;;;;;;;0.57;0.57;;;;;;;;;;5058895;28;20264;-80
2022/09/05 00:03:57;;;;;;;1.27;1.27;;;;;;;;;;5058692;28;20189;-80
2022/09/05 00:06:51;;;;;;;0.30;0.30;;;;;;;;;;5057743;28;20271;-81
2022/09/05 00:09:22;;;;;;;0.30;0.30;;;;;;;;;;5092177;28;20273;-81
2022/09/05 00:11:57;;;;;;;2.47;1.37;;;;;;;;;;5058592;28;20235;-82
2022/09/05 00:14:43;;;;;;;0.40;0.40;;;;;;;;;;5058420;28;20200;-81
2022/09/05 00:17:35;;;;;;;0.30;0.30;;;;;;;;;;5046983;28;20203;-82
2022/09/05 00:20:26;;;;;;;0.87;0.87;;;;;;;;;;5057993;28;20249;-82
2022/09/05 00:23:20;;;;;;;0.30;0.30;;;;;;;;;;5091919;28;20208;-82
2022/09/05 00:26:16;;;;;;;0.20;0.20;;;;;;;;;;5058535;28;20257;-82
2022/09/05 00:28:49;;;;;;;0.30;0.30;;;;;;;;;;5045477;28;20211;-81
2022/09/05 00:31:26;;;;;;;0.30;0.30;;;;;;;;;;5058270;28;20298;-82
2022/09/05 00:34:21;;;;;;;1.50;1.40;;;;;;;;;;5058117;28;20210;-81
2022/09/05 00:36:53;;;;;;;0.67;0.67;;;;;;;;;;5063175;28;20223;-82
2022/09/05 00:39:25;;;;;;;0.73;0.73;;;;;;;;;;5058077;28;20208;-81
2022/09/05 00:41:55;;;;;;;0.40;0.40;;;;;;;;;;5058086;28;20212;-82
2022/09/05 00:44:26;;;;;;;0.30;0.30;;;;;;;;;;5075563;28;20263;-82
2022/09/05 00:46:58;;;;;;;0.40;0.40;;;;;;;;;;5058073;28;20198;-81
2022/09/05 00:49:31;;;;;;;1.87;1.77;;;;;;;;;;5053511;28;20239;-82
2022/09/05 00:52:03;;;;;;;1.00;1.00;;;;;;;;;;5038695;28;20211;-82
2022/09/05 00:54:46;;;;;;;0.30;0.30;;;;;;;;;;5074461;28;20196;-81
2022/09/05 00:57:23;;;;;;;32.40;10.33;;;;;;;;;;5056030;28;20203;-81
2022/09/05 01:00:00;;;;;;;0.30;0.30;;;;;;;;;;5072097;28;20282;-82
2022/09/05 01:02:37;;;;;;;0.83;0.83;;;;;;;;;;5053097;28;20225;-81
2022/09/05 01:05:26;;;;;;;8.03;3.27;;;;;;;;;;5051276;28;20283;-82
2022/09/05 01:08:07;;;;;;;0.97;0.97;;;;;;;;;;5063134;28;20282;-81
2022/09/05 01:10:40;;;;;;;0.70;0.70;;;;;;;;;;5057370;28;20214;-81
2022/09/05 01:13:16;;;;;;;1.37;1.37;;;;;;;;;;5057356;28;20202;-82
2022/09/05 01:15:51;;;;;;;2.90;1.67;;;;;;;;;;5045018;28;20280;-81
2022/09/05 01:18:28;;;;;;;2.97;2.77;;;;;;;;;;5074973;28;20193;-80
2022/09/05 01:21:05;;;;;;;8.47;2.50;;;;;;;;;;5075110;28;20198;-80
2022/09/05 01:23:41;;;;;;;0.70;0.70;;;;;;;;;;5074743;28;20202;-80
2022/09/05 01:26:23;;;;;;;0.80;0.80;;;;;;;;;;5075393;28;20203;-80
2022/09/05 01:28:56;;;;;;;0.67;0.67;;;;;;;;;;5045660;28;20205;-80
2022/09/05 01:31:50;;;;;;;0.50;0.50;;;;;;;;;;5074398;28;20223;-80
2022/09/05 01:34:22;;;;;;;0.40;0.40;;;;;;;;;;5057084;28;20212;-80
2022/09/05 01:37:03;;;;;;;1.33;1.33;;;;;;;;;;5045992;28;20275;-80
2022/09/05 01:39:37;;;;;;;0.30;0.30;;;;;;;;;;5090582;28;20200;-80
2022/09/05 01:42:32;;;;;;;4.33;4.13;;;;;;;;;;5074646;28;20214;-80
2022/09/05 01:45:05;;;;;;;1.33;1.33;;;;;;;;;;5056664;28;20196;-80
2022/09/05 01:47:41;;;;;;;0.30;0.30;;;;;;;;;;5074291;28;20214;-80
2022/09/05 01:50:13;;;;;;;0.40;0.40;;;;;;;;;;5066367;28;20234;-80
2022/09/05 01:52:50;;;;;;;0.30;0.30;;;;;;;;;;5056804;28;20205;-80
2022/09/05 01:55:34;;;;;;;0.60;0.60;;;;;;;;;;5056502;28;20229;-80
2022/09/05 01:58:28;;;;;;;0.30;0.30;;;;;;;;;;5056388;28;20207;-80
2022/09/05 02:01:03;;;;;;;0.70;0.70;;;;;;;;;;5043459;28;20244;-80
2022/09/05 02:03:59;;;;;;;0.87;0.87;;;;;;;;;;5073713;28;20255;-80
2022/09/05 02:06:43;;;;;;;1.63;1.63;;;;;;;;;;5056633;28;20224;-80
2022/09/05 02:09:21;;;;;;;0.30;0.30;;;;;;;;;;5082965;28;20194;-80
2022/09/05 02:11:52;;;;;;;0.53;0.53;;;;;;;;;;5051747;28;20222;-80
2022/09/05 02:14:25;;;;;;;0.30;0.30;;;;;;;;;;5090117;28;20190;-80
2022/09/05 02:17:16;;;;;;;1.03;1.03;;;;;;;;;;5043279;28;20210;-80
2022/09/05 02:20:13;;;;;;;0.40;0.40;;;;;;;;;;5055968;28;20198;-80
2022/09/05 02:22:52;;;;;;;10.83;3.40;;;;;;;;;;5089856;28;20293;-80
2022/09/05 02:25:25;;;;;;;0.57;0.57;;;;;;;;;;5089461;28;20204;-80
2022/09/05 02:28:14;;;;;;;0.87;0.87;;;;;;;;;;5055807;28;20198;-80
2022/09/05 02:30:45;;;;;;;0.43;0.43;;;;;;;;;;5056113;28;20236;-80
2022/09/05 02:33:36;;;;;;;0.30;0.30;;;;;;;;;;5073686;28;20202;-80
2022/09/05 02:36:09;;;;;;;0.30;0.30;;;;;;;;;;5073580;28;20221;-80
2022/09/05 02:38:39;;;;;;;3.33;3.07;;;;;;;;;;5056223;28;20197;-80
2022/09/05 02:41:33;;;;;;;2.17;2.00;;;;;;;;;;5073315;28;20190;-80
2022/09/05 02:44:24;;;;;;;0.63;0.63;;;;;;;;;;5042175;28;20202;-80
2022/09/05 02:47:21;;;;;;;0.30;0.30;;;;;;;;;;5050414;28;20206;-79
2022/09/05 02:49:55;;;;;;;0.30;0.30;;;;;;;;;;5039414;28;20225;-80
2022/09/05 02:52:47;;;;;;;0.50;0.50;;;;;;;;;;5036185;28;20191;-80
2022/09/05 02:55:44;;;;;;;0.30;0.30;;;;;;;;;;5069577;28;20205;-79
2022/09/05 02:58:38;;;;;;;0.40;0.40;;;;;;;;;;5043634;28;20194;-79
2022/09/05 03:01:42;;;;;;;0.53;0.53;;;;;;;;;;5071069;28;20280;-79
2022/09/05 03:04:16;;;;;;;1.80;1.30;;;;;;;;;;5055368;28;20197;-79
2022/09/05 03:06:52;;;;;;;0.30;0.30;;;;;;;;;;5071695;28;20295;-80
2022/09/05 03:09:27;;;;;;;0.47;0.47;;;;;;;;;;5055248;28;20203;-79
2022/09/05 03:12:14;;;;;;;1.33;1.23;;;;;;;;;;5055046;28;20225;-79
2022/09/05 03:15:11;;;;;;;1.37;1.27;;;;;;;;;;5055404;28;20196;-79
2022/09/05 03:17:53;;;;;;;1.60;1.20;;;;;;;;;;5065654;28;20190;-79
2022/09/05 03:20:39;;;;;;;2.47;2.27;;;;;;;;;;5083488;28;20197;-79
2022/09/05 03:23:22;;;;;;;0.50;0.50;;;;;;;;;;5089153;28;20221;-80
2022/09/05 03:26:18;;;;;;;1.13;1.13;;;;;;;;;;5059512;28;20206;-79
2022/09/05 03:29:20;;;;;;;1.00;1.00;;;;;;;;;;5055254;28;20209;-80
2022/09/05 03:32:03;;;;;;;0.60;0.60;;;;;;;;;;5005997;28;20215;-80
2022/09/05 03:34:41;;;;;;;0.30;0.30;;;;;;;;;;4981046;28;20308;-80
2022/09/05 03:37:40;;;;;;;0.33;0.33;;;;;;;;;;5037286;28;20209;-80
2022/09/05 03:40:17;;;;;;;0.30;0.30;;;;;;;;;;5067583;28;20210;-80
2022/09/05 03:42:55;;;;;;;0.30;0.30;;;;;;;;;;5076915;28;20196;-80
2022/09/05 03:45:45;;;;;;;0.30;0.30;;;;;;;;;;5076583;28;20213;-80
2022/09/05 03:48:28;;;;;;;0.63;0.63;;;;;;;;;;5077181;28;20285;-80
2022/09/05 03:51:00;;;;;;;1.17;1.17;;;;;;;;;;5091804;28;20299;-80
2022/09/05 03:54:05;;;;;;;0.40;0.40;;;;;;;;;;5058916;28;20544;-80
2022/09/05 03:57:08;;;;;;;0.80;0.80;;;;;;;;;;5058547;28;20209;-81
2022/09/05 04:00:07;;;;;;;0.30;0.30;;;;;;;;;;5076304;28;20224;-80
2022/09/05 04:02:39;;;;;;;0.40;0.40;;;;;;;;;;5052293;28;20203;-80
2022/09/05 04:05:30;;;;;;;0.40;0.40;;;;;;;;;;5090189;28;20234;-78
2022/09/05 04:08:22;;;;;;;0.40;0.40;;;;;;;;;;5076141;28;20295;-78
2022/09/05 04:11:10;;;;;;;0.50;0.50;;;;;;;;;;5092280;28;20208;-79
2022/09/05 04:13:40;;;;;;;0.30;0.30;;;;;;;;;;5058674;28;20202;-79
2022/09/05 04:16:14;;;;;;;0.30;0.30;;;;;;;;;;5058400;28;20205;-78
2022/09/05 04:18:45;;;;;;;0.30;0.30;;;;;;;;;;5046240;28;20194;-78
2022/09/05 04:21:15;;;;;;;0.73;0.73;;;;;;;;;;5057537;28;20247;-78
2022/09/05 04:23:48;;;;;;;0.83;0.83;;;;;;;;;;5076352;28;20272;-78
2022/09/05 04:26:23;;;;;;;0.30;0.30;;;;;;;;;;5075346;28;20193;-79
2022/09/05 04:28:54;;;;;;;0.50;0.50;;;;;;;;;;5058172;28;20254;-79
2022/09/05 04:31:31;;;;;;;0.30;0.30;;;;;;;;;;5074696;28;20214;-79
2022/09/05 04:34:09;;;;;;;0.30;0.30;;;;;;;;;;5057820;28;20219;-79
2022/09/05 04:36:39;;;;;;;0.40;0.40;;;;;;;;;;5075921;28;20221;-79
2022/09/05 04:39:09;;;;;;;0.30;0.30;;;;;;;;;;5058516;28;20202;-79
2022/09/05 04:41:41;;;;;;;0.40;0.40;;;;;;;;;;5075689;28;20196;-79
2022/09/05 04:44:11;;;;;;;0.30;0.30;;;;;;;;;;5057735;28;20223;-79
2022/09/05 04:46:44;;;;;;;0.50;0.50;;;;;;;;;;5074446;28;20198;-79
2022/09/05 04:49:17;;;;;;;1.23;1.23;;;;;;;;;;5057615;28;20286;-79
2022/09/05 04:52:03;;;;;;;0.53;0.53;;;;;;;;;;5057911;28;20212;-79
2022/09/05 04:54:35;;;;;;;0.50;0.50;;;;;;;;;;5065383;28;20198;-79
2022/09/05 04:57:10;;;;;;;0.30;0.30;;;;;;;;;;5075252;28;20198;-79
2022/09/05 04:59:46;;;;;;;0.90;0.90;;;;;;;;;;5057815;28;20206;-79
2022/09/05 05:02:40;;;;;;;0.40;0.40;;;;;;;;;;5075236;28;20194;-78
2022/09/05 05:05:33;;;;;;;0.87;0.87;;;;;;;;;;5057534;28;20198;-79
2022/09/05 05:08:27;;;;;;;1.00;1.00;;;;;;;;;;5057072;28;20198;-78
2022/09/05 05:11:09;;;;;;;2.20;1.80;;;;;;;;;;5090257;28;20198;-79
2022/09/05 05:14:01;;;;;;;0.30;0.30;;;;;;;;;;5057559;28;20206;-79
2022/09/05 05:16:53;;;;;;;0.50;0.50;;;;;;;;;;5074759;28;20201;-79
2022/09/05 05:19:46;;;;;;;0.57;0.57;;;;;;;;;;5055940;28;20252;-79
2022/09/05 05:22:34;;;;;;;0.70;0.70;;;;;;;;;;5074883;28;20275;-79
2022/09/05 05:25:03;;;;;;;0.70;0.70;;;;;;;;;;5073484;28;20205;-79
2022/09/05 05:27:39;;;;;;;1.83;1.67;;;;;;;;;;5090629;28;20197;-79
2022/09/05 05:30:09;;;;;;;0.33;0.33;;;;;;;;;;5073646;28;20218;-79
2022/09/05 05:32:41;;;;;;;0.37;0.37;;;;;;;;;;5055589;28;20222;-79
2022/09/05 05:35:16;;;;;;;0.53;0.53;;;;;;;;;;5056960;28;20217;-80
2022/09/05 05:37:46;;;;;;;2.20;2.10;;;;;;;;;;5056594;28;20212;-79
2022/09/05 05:40:20;;;;;;;3.70;2.20;;;;;;;;;;5074540;28;20197;-79
2022/09/05 05:42:49;;;;;;;1.63;0.77;;;;;;;;;;5055797;28;20190;-79
2022/09/05 05:45:18;;;;;;;1.87;1.80;;;;;;;;;;5056508;28;20199;-79
2022/09/05 05:47:48;;;;;;;1.27;1.27;;;;;;;;;;5044273;28;20246;-79
2022/09/05 05:50:27;;;;;;;0.30;0.30;;;;;;;;;;5056285;28;20234;-79
2022/09/05 05:53:25;;;;;;;1.33;1.23;;;;;;;;;;5055621;28;20224;-78
2022/09/05 05:56:25;;;;;;;0.57;0.57;;;;;;;;;;4993097;28;20215;-79
2022/09/05 05:58:59;;;;;;;0.40;0.40;;;;;;;;;;5073795;28;20223;-79
2022/09/05 06:01:47;;;;;;;0.30;0.30;;;;;;;;;;5090226;28;20208;-79
2022/09/05 06:04:30;;;;;;;0.83;0.83;;;;;;;;;;5045203;28;20296;-79
2022/09/05 06:07:07;;;;;;;0.60;0.60;;;;;;;;;;5074071;28;20204;-79
2022/09/05 06:09:53;;;;;;;2.30;1.50;;;;;;;;;;5056181;28;20292;-79
2022/09/05 06:13:01;;;;;;;0.30;0.30;;;;;;;;;;5065415;28;20212;-79
2022/09/05 06:16:07;;;;;;;3.57;2.93;;;;;;;;;;5046346;28;20277;-79
2022/09/05 06:19:10;;;;;;;0.87;0.87;;;;;;;;;;5089098;28;20245;-79
2022/09/05 06:21:54;;;;;;;1.37;1.37;;;;;;;;;;4976241;28;20197;-79
2022/09/05 06:25:00;;;;;;;1.97;1.63;;;;;;;;;;4995825;28;20206;-79
2022/09/05 06:27:57;;;;;;;1.80;1.70;;;;;;;;;;5055964;28;20245;-79
2022/09/05 06:30:47;;;;;;;0.97;0.97;;;;;;;;;;5062758;28;20283;-79
2022/09/05 06:33:37;;;;;;;2.23;1.17;;;;;;;;;;5062346;28;20281;-79
2022/09/05 06:36:13;;;;;;;0.57;0.57;;;;;;;;;;5089319;28;20234;-79
2022/09/05 06:38:58;;;;;;;4.77;4.03;;;;;;;;;;5089287;28;20213;-80
2022/09/05 06:41:35;;;;;;;3.23;2.93;;;;;;;;;;5055938;28;20200;-79
2022/09/05 06:44:21;;;;;;;3.37;3.07;;;;;;;;;;5060265;28;20205;-79
2022/09/05 06:46:54;;;;;;;0.40;0.40;;;;;;;;;;5055600;28;20221;-79
2022/09/05 06:49:57;;;;;;;1.23;1.13;;;;;;;;;;5073154;28;20229;-79
2022/09/05 06:52:40;;;;;;;0.50;0.50;;;;;;;;;;5068203;28;20288;-79
2022/09/05 06:55:36;;;;;;;3.20;2.13;;;;;;;;;;5073067;28;20268;-79
2022/09/05 06:58:17;;;;;;;1.50;1.40;;;;;;;;;;5055972;28;20231;-79
2022/09/05 07:00:47;;;;;;;2.10;1.93;;;;;;;;;;5072350;28;20202;-79
2022/09/05 07:03:27;;;;;;;0.57;0.57;;;;;;;;;;5060832;28;20203;-79
2022/09/05 07:06:01;;;;;;;1.73;1.63;;;;;;;;;;5043631;28;20195;-79
2022/09/05 07:08:33;;;;;;;0.50;0.50;;;;;;;;;;5055170;28;20927;-79
2022/09/05 07:11:06;;;;;;;1.47;1.43;;;;;;;;;;5055508;28;20216;-79
2022/09/05 07:13:48;;;;;;;1.87;1.77;;;;;;;;;;5088256;28;20206;-79
2022/09/05 07:16:18;;;;;;;1.50;1.40;;;;;;;;;;5055503;28;20211;-79
2022/09/05 07:19:11;;;;;;;0.50;0.50;;;;;;;;;;5061712;28;20207;-78
2022/09/05 07:21:43;;;;;;;2.60;2.50;;;;;;;;;;5055042;28;20203;-79
2022/09/05 07:24:13;;;;;;;1.43;1.33;;;;;;;;;;5071849;28;20195;-79
2022/09/05 07:26:51;;;;;;;1.87;1.77;;;;;;;;;;5055291;28;20223;-79
2022/09/05 07:29:26;;;;;;;1.87;1.73;;;;;;;;;;5054549;28;20210;-79
2022/09/05 07:31:56;;;;;;;0.77;0.77;;;;;;;;;;5055256;28;20218;-79
2022/09/05 07:34:28;;;;;;;0.97;0.97;;;;;;;;;;5071744;28;20219;-79
2022/09/05 07:36:57;;;;;;;2.97;1.40;;;;;;;;;;5050686;28;20321;-79
2022/09/05 07:39:45;;;;;;;2.53;1.70;;;;;;;;;;5051984;28;20194;-77
2022/09/05 07:42:16;;;;;;;2.87;2.70;;;;;;;;;;5050670;28;20198;-79
2022/09/05 07:44:48;;;;;;;0.97;0.90;;;;;;;;;;5050501;28;20286;-80
2022/09/05 07:47:23;;;;;;;6.27;3.30;;;;;;;;;;5045977;28;20209;-81
2022/09/05 07:49:52;;;;;;;3.70;2.03;;;;;;;;;;5046634;28;20229;-80
2022/09/05 07:52:43;;;;;;;7.30;2.40;;;;;;;;;;5051705;28;20201;-79
2022/09/05 07:55:33;;;;;;;1.87;1.80;;;;;;;;;;5051113;28;20219;-78
2022/09/05 07:58:23;;;;;;;5.93;2.77;;;;;;;;;;5047627;28;20207;-80
2022/09/05 08:00:55;;;;;;;14.53;6.13;;;;;;;;;;5068931;28;20203;-81
2022/09/05 08:03:25;;;;;;;7.03;4.33;;;;;;;;;;5071458;28;20214;-79
2022/09/05 08:05:58;;;;;;;1.97;1.87;;;;;;;;;;5044000;28;20218;-80
2022/09/05 08:08:29;;;;;;;0.20;0.20;;;;;;;;;;5041669;28;20201;-80
2022/09/05 08:10:59;;;;;;;1.90;1.80;;;;;;;;;;5082158;28;20199;-79
2022/09/05 08:13:50;;;;;;;4.53;3.00;;;;;;;;;;5085363;28;20217;-81
2022/09/05 08:16:22;;;;;;;6.03;3.77;;;;;;;;;;5082733;28;20209;-82
2022/09/05 08:18:52;;;;;;;3.40;2.43;;;;;;;;;;5050287;28;20208;-82
2022/09/05 08:21:23;;;;;;;1.30;1.20;;;;;;;;;;5055592;28;20290;-82
2022/09/05 08:23:57;;;;;;;1.80;1.70;;;;;;;;;;5056886;28;20279;-83
2022/09/05 08:26:32;;;;;;;1.80;1.70;;;;;;;;;;5052125;28;20257;-81
2022/09/05 08:29:07;;;;;;;1.17;1.07;;;;;;;;;;5075653;28;20297;-82
2022/09/05 08:31:40;;;;;;;3.40;1.63;;;;;;;;;;5089280;28;20197;-83
2022/09/05 08:34:12;;;;;;;1.03;0.73;;;;;;;;;;5062582;28;20220;-82
2022/09/05 08:36:44;;;;;;;3.37;2.60;;;;;;;;;;5056650;28;20220;-82
2022/09/05 08:39:13;;;;;;;0.93;0.93;;;;;;;;;;5058671;28;20244;-83
2022/09/05 08:41:49;;;;;;;0.27;0.27;;;;;;;;;;5059499;28;20206;-81
2022/09/05 08:44:32;;;;;;;4.17;2.97;;;;;;;;;;5090066;28;20211;-83
2022/09/05 08:47:27;;;;;;;1.93;1.70;;;;;;;;;;5091374;28;20213;-83
2022/09/05 08:50:20;;;;;;;3.03;2.27;;;;;;;;;;5069144;28;20219;-84
2022/09/05 08:53:06;;;;;;;4.13;2.13;;;;;;;;;;5053962;28;20205;-83
2022/09/05 08:55:58;;;;;;;1.57;1.57;;;;;;;;;;5049115;28;20202;-83
2022/09/05 08:58:41;;;;;;;2.37;1.53;;;;;;;;;;5055578;28;20209;-83
2022/09/05 09:01:13;;;;;;;3.23;1.93;;;;;;;;;;5036435;28;20244;-83
2022/09/05 09:03:53;;;;;;;2.73;1.83;;;;;;;;;;5053170;28;20252;-83
2022/09/05 09:06:38;;;;;;;0.50;0.50;;;;;;;;;;5052925;28;20213;-83
2022/09/05 09:09:14;;;;;;;0.57;0.57;;;;;;;;;;5052258;28;20233;-82
2022/09/05 09:11:46;;;;;;;3.63;3.30;;;;;;;;;;5043637;28;20206;-84
2022/09/05 09:14:26;;;;;;;2.50;2.23;;;;;;;;;;5051599;28;20237;-83
2022/09/05 09:17:05;;;;;;;2.80;1.77;;;;;;;;;;5052288;28;20209;-85
2022/09/05 09:19:44;;;;;;;1.83;1.50;;;;;;;;;;5052698;28;20212;-83
2022/09/05 09:22:16;;;;;;;13.03;2.50;;;;;;;;;;5050563;28;20216;-84
2022/09/05 09:24:48;;;;;;;1.73;1.50;;;;;;;;;;5044967;28;20210;-83
2022/09/05 09:27:43;;;;;;;2.20;1.93;;;;;;;;;;5042765;28;20211;-83
2022/09/05 09:30:34;;;;;;;0.77;0.77;;;;;;;;;;5051090;28;20232;-83
2022/09/05 09:33:05;;;;;;;2.57;1.50;;;;;;;;;;5052929;28;20214;-83
2022/09/05 09:35:47;;;;;;;2.87;1.70;;;;;;;;;;5049359;28;20284;-85
2022/09/05 09:38:28;;;;;;;2.40;2.20;;;;;;;;;;5070990;28;20208;-84
2022/09/05 09:41:16;;;;;;;6.10;2.57;;;;;;;;;;5049502;28;20305;-84
2022/09/05 09:44:03;;;;;;;0.63;0.63;;;;;;;;;;5055239;28;20202;-82
2022/09/05 09:46:40;;;;;;;1.77;1.50;;;;;;;;;;5036980;28;20203;-82
2022/09/05 09:49:17;;;;;;;2.90;1.50;;;;;;;;;;5028744;28;20285;-81
2022/09/05 09:52:01;;;;;;;1.50;1.07;;;;;;;;;;5053735;28;20196;-83
2022/09/05 09:54:46;;;;;;;0.80;0.80;;;;;;;;;;5053945;28;20308;-83
2022/09/05 09:57:43;;;;;;;1.77;1.10;;;;;;;;;;5051433;28;20197;-84
2022/09/05 10:00:16;;;;;;;2.17;1.93;;;;;;;;;;5079815;28;20206;-84
2022/09/05 10:03:01;;;;;;;2.43;1.50;;;;;;;;;;5049746;28;20282;-83
2022/09/05 10:06:11;;;;;;;2.60;1.90;;;;;;;;;;5049318;28;20199;-84
2022/09/05 10:09:07;;;;;;;2.53;1.90;;;;;;;;;;5068238;28;20200;-85
2022/09/05 10:12:10;;;;;;;0.53;0.53;;;;;;;;;;5045500;28;20254;-86
2022/09/05 10:14:52;;;;;;;3.30;1.93;;;;;;;;;;5052203;28;20302;-85
2022/09/05 10:17:39;;;;;;;1.10;0.97;;;;;;;;;;5045044;28;20294;-85
2022/09/05 10:20:40;;;;;;;4.00;2.40;;;;;;;;;;5050051;28;20208;-89
2022/09/05 10:23:33;;;;;;;3.63;1.60;;;;;;;;;;5047568;28;20201;-87
2022/09/05 10:26:19;;;;;;;1.73;1.63;;;;;;;;;;5080844;28;20204;-86
2022/09/05 10:28:59;;;;;;;4.50;1.90;;;;;;;;;;5038685;28;20259;-88
2022/09/05 10:31:55;;;;;;;5.13;1.97;;;;;;;;;;5046847;28;20207;-86
2022/09/05 10:42:17;;;;;;;4.97;2.03;;;;;;;;;;4952422;28;20259;-89
2022/09/05 10:44:51;;;;;;;3.17;1.70;;;;;;;;;;4980869;28;20201;-83
2022/09/05 10:47:28;;;;;;;2.23;1.33;;;;;;;;;;5044658;28;20224;-83
2022/09/05 10:50:01;;;;;;;0.53;0.53;;;;;;;;;;5043746;28;20249;-85
2022/09/05 10:52:37;;;;;;;1.27;1.17;;;;;;;;;;5047914;28;20202;-84
2022/09/05 10:55:10;;;;;;;0.90;0.90;;;;;;;;;;5047000;28;20257;-86
2022/09/05 10:57:53;;;;;;;2.60;1.60;;;;;;;;;;5045518;28;20447;-84
2022/09/05 11:00:46;;;;;;;1.33;1.20;;;;;;;;;;5043680;28;20218;-85
2022/09/05 11:03:48;;;;;;;2.07;1.33;;;;;;;;;;5046594;28;20205;-82
2022/09/05 11:06:19;;;;;;;2.17;1.90;;;;;;;;;;5076542;28;20268;-82
2022/09/05 11:08:59;;;;;;;2.53;1.80;;;;;;;;;;5042048;28;20194;-82
2022/09/05 11:11:38;;;;;;;3.50;2.60;;;;;;;;;;5050686;28;20222;-82
2022/09/05 11:14:19;;;;;;;1.33;1.10;;;;;;;;;;5052854;28;20201;-82
2022/09/05 11:17:01;;;;;;;2.40;0.80;;;;;;;;;;5049957;28;20198;-81
2022/09/05 11:19:35;;;;;;;1.57;1.47;;;;;;;;;;5051206;28;20259;-82
2022/09/05 11:22:04;;;;;;;3.40;1.60;;;;;;;;;;5051180;28;20297;-82
2022/09/05 11:24:54;;;;;;;2.03;1.80;;;;;;;;;;5049299;28;20281;-82
2022/09/05 11:27:30;;;;;;;2.10;1.63;;;;;;;;;;5056595;28;20207;-82
2022/09/05 11:30:02;;;;;;;0.60;0.60;;;;;;;;;;5047656;28;20205;-82
2022/09/05 11:32:41;;;;;;;2.77;1.70;;;;;;;;;;5073962;28;20205;-82
2022/09/05 11:35:31;;;;;;;1.60;1.50;;;;;;;;;;5037601;28;20271;-82
2022/09/05 11:38:29;;;;;;;1.27;0.70;;;;;;;;;;5046251;28;20202;-82
2022/09/05 11:41:37;;;;;;;3.73;2.27;;;;;;;;;;5049664;28;20325;-82
2022/09/05 11:44:26;;;;;;;2.23;1.43;;;;;;;;;;5064356;28;20236;-82
2022/09/05 11:47:05;;;;;;;1.93;1.60;;;;;;;;;;5049232;28;20260;-82
2022/09/05 11:50:10;;;;;;;2.57;1.63;;;;;;;;;;5049500;28;20319;-82
2022/09/05 11:52:56;;;;;;;2.80;1.77;;;;;;;;;;5052616;28;20295;-81
2022/09/05 11:55:39;;;;;;;2.67;1.53;;;;;;;;;;5055658;28;20214;-82
2022/09/05 11:58:25;;;;;;;3.37;1.67;;;;;;;;;;5054631;28;20202;-82
2022/09/05 12:01:16;;;;;;;1.77;1.40;;;;;;;;;;5051368;28;20218;-82
2022/09/05 12:04:15;;;;;;;4.80;1.70;;;;;;;;;;5087332;28;20215;-82
2022/09/05 12:07:09;;;;;;;4.77;2.23;;;;;;;;;;5054585;28;20189;-82
2022/09/05 12:10:12;;;;;;;1.60;1.50;;;;;;;;;;5046703;28;20206;-82
2022/09/05 12:13:18;;;;;;;1.73;1.20;;;;;;;;;;5064348;28;20231;-82
2022/09/05 12:15:54;;;;;;;3.77;1.60;;;;;;;;;;5049438;28;20222;-82
2022/09/05 12:18:43;;;;;;;3.30;2.13;;;;;;;;;;5048808;28;20190;-85
2022/09/05 12:21:24;;;;;;;3.60;1.73;;;;;;;;;;5048186;28;20285;-84
2022/09/05 12:24:06;;;;;;;5.53;1.87;;;;;;;;;;5048199;28;20222;-83
2022/09/05 12:27:03;;;;;;;2.33;1.30;;;;;;;;;;5045673;28;20289;-83
2022/09/05 12:29:55;;;;;;;15.53;1.47;;;;;;;;;;5047793;28;20321;-83
2022/09/05 12:32:28;;;;;;;2.57;1.33;;;;;;;;;;5033865;28;20300;-84
2022/09/05 12:35:21;;;;;;;3.23;1.60;;;;;;;;;;5044235;28;20305;-84
2022/09/05 12:46:08;;;;;;;3.73;1.80;;;;;;;;;;5043739;28;20206;-85
2022/09/05 12:49:01;;;;;;;1.07;1.03;;;;;;;;;;5031184;28;20226;-83
2022/09/05 12:51:39;;;;;;;0.87;0.70;;;;;;;;;;5031732;28;20198;-83
2022/09/05 12:54:23;;;;;;;0.90;0.70;;;;;;;;;;5043797;28;20207;-84
2022/09/05 12:57:04;;;;;;;1.07;0.97;;;;;;;;;;5032346;28;20218;-83
2022/09/05 12:59:53;;;;;;;1.40;1.20;;;;;;;;;;5050492;28;20213;-84
2022/09/05 13:02:45;;;;;;;3.80;1.07;;;;;;;;;;5048326;28;20207;-83
2022/09/05 13:05:50;;;;;;;1.70;1.60;;;;;;;;;;5050130;28;20202;-84
2022/09/05 13:08:23;;;;;;;1.80;0.73;;;;;;;;;;5029452;28;20198;-83
2022/09/05 13:10:55;;;;;;;2.17;1.73;;;;;;;;;;5027568;28;20286;-83
2022/09/05 13:13:46;;;;;;;1.23;1.03;;;;;;;;;;5047409;28;20197;-81
2022/09/05 13:16:38;;;;;;;3.87;1.57;;;;;;;;;;5047079;28;20217;-82
2022/09/05 13:19:13;;;;;;;1.33;1.23;;;;;;;;;;5050209;28;20198;-81
2022/09/05 13:21:56;;;;;;;2.00;1.90;;;;;;;;;;5049844;28;20210;-81
2022/09/05 13:30:29;;;;;;;1.03;0.60;;;;;;;;;;5034268;28;20203;-82
2022/09/05 13:33:22;;;;;;;1.57;1.47;;;;;;;;;;5037329;28;20256;-82
2022/09/05 13:36:14;;;;;;;0.60;0.60;;;;;;;;;;5032736;28;20232;-82
2022/09/05 13:39:04;;;;;;;1.20;0.90;;;;;;;;;;5035300;28;20198;-82
2022/09/05 13:41:35;;;;;;;2.17;2.07;;;;;;;;;;5036199;28;20206;-82
2022/09/05 13:44:29;;;;;;;1.43;1.20;;;;;;;;;;5031578;28;20206;-81
2022/09/05 13:48:01;;;;;;;0.57;0.57;;;;;;;;;;4941342;29;20217;-81
2022/09/05 13:50:31;;;;;;;1.90;1.67;;;;;;;;;;4930783;28;20250;-83
2022/09/05 13:53:03;;;;;;;1.07;0.93;;;;;;;;;;4950267;28;20224;-80
2022/09/05 13:55:38;;;;;;;0.23;0.23;;;;;;;;;;4948575;28;20236;-81
2022/09/05 13:58:09;;;;;;;1.17;1.13;;;;;;;;;;4964088;28;20295;-81
2022/09/05 14:00:53;;;;;;;1.40;0.73;;;;;;;;;;4967375;28;20231;-81
2022/09/05 14:03:40;;;;;;;0.50;0.50;;;;;;;;;;4965080;28;20365;-81
2022/09/05 14:06:21;;;;;;;2.17;1.83;;;;;;;;;;5025068;28;20249;-80
2022/09/05 14:09:18;;;;;;;0.70;0.70;;;;;;;;;;5020276;28;20237;-83
2022/09/05 14:12:10;;;;;;;2.27;2.00;;;;;;;;;;5023070;28;20248;-81
2022/09/05 14:14:43;;;;;;;1.60;1.50;;;;;;;;;;5039100;28;20195;-82
2022/09/05 14:17:37;;;;;;;1.47;0.80;;;;;;;;;;5028744;28;20230;-81
2022/09/05 14:23:12;;;;;;;1.23;1.23;;;;;;;;;;5027049;28;20211;-81
2022/09/05 14:25:43;;;;;;;1.23;1.00;;;;;;;;;;5029446;28;20194;-82
2022/09/05 14:28:14;;;;;;;4.20;1.30;;;;;;;;;;5021048;28;20218;-82
2022/09/05 14:30:44;;;;;;;2.40;1.57;;;;;;;;;;5022902;28;20207;-82
2022/09/05 14:33:40;;;;;;;3.17;2.50;;;;;;;;;;5051352;28;20285;-82
2022/09/05 14:36:34;;;;;;;0.43;0.43;;;;;;;;;;5034819;28;20222;-82
2022/09/05 14:39:35;;;;;;;1.57;1.47;;;;;;;;;;5046975;28;20194;-82
2022/09/05 14:42:19;;;;;;;5.40;1.60;;;;;;;;;;5036753;28;20276;-81
2022/09/05 14:44:59;;;;;;;1.20;1.10;;;;;;;;;;5043687;28;20208;-82
2022/09/05 14:47:39;;;;;;;1.23;1.13;;;;;;;;;;5045526;28;20202;-83
2022/09/05 14:50:19;;;;;;;0.83;0.83;;;;;;;;;;5027998;28;20237;-83
2022/09/05 14:53:00;;;;;;;5.10;4.80;;;;;;;;;;5047881;28;20214;-81
2022/09/05 14:55:56;;;;;;;1.13;1.03;;;;;;;;;;5027154;28;20205;-82
2022/09/05 14:58:45;;;;;;;0.30;0.30;;;;;;;;;;5048268;28;20210;-82
2022/09/05 15:01:47;;;;;;;2.53;1.67;;;;;;;;;;5026259;28;20206;-83
2022/09/05 15:04:42;;;;;;;0.60;0.60;;;;;;;;;;5029448;28;20198;-82
2022/09/05 15:07:15;;;;;;;1.40;1.30;;;;;;;;;;5026096;28;20198;-82
2022/09/05 15:09:44;;;;;;;3.20;1.77;;;;;;;;;;5046428;28;20214;-81
2022/09/05 15:12:33;;;;;;;1.03;1.03;;;;;;;;;;5045304;28;20209;-82
2022/09/05 15:15:24;;;;;;;1.00;1.00;;;;;;;;;;5046135;28;20237;-82
2022/09/05 15:17:59;;;;;;;7.93;1.67;;;;;;;;;;5059113;28;20202;-80
2022/09/05 15:20:29;;;;;;;1.07;1.07;;;;;;;;;;5058956;28;20234;-81
2022/09/05 15:23:01;;;;;;;0.80;0.80;;;;;;;;;;5059899;28;20298;-81
2022/09/05 15:25:47;;;;;;;1.10;1.10;;;;;;;;;;5031561;28;20288;-85
2022/09/05 15:28:20;;;;;;;1.53;1.27;;;;;;;;;;5027260;28;20282;-83
2022/09/05 15:30:57;;;;;;;0.80;0.80;;;;;;;;;;5033115;28;20221;-83
2022/09/05 15:33:28;;;;;;;1.60;1.50;;;;;;;;;;5031821;28;20284;-83
2022/09/05 15:35:57;;;;;;;1.13;1.13;;;;;;;;;;5034620;28;20221;-83
2022/09/05 15:38:27;;;;;;;2.27;2.10;;;;;;;;;;5034600;28;20222;-82
2022/09/05 15:41:18;;;;;;;0.60;0.53;;;;;;;;;;5051689;28;20209;-83
2022/09/05 15:43:57;;;;;;;1.37;1.33;;;;;;;;;;5048701;28;20260;-82
2022/09/05 15:46:28;;;;;;;1.20;1.20;;;;;;;;;;5051969;28;20198;-83
2022/09/05 15:49:06;;;;;;;0.70;0.67;;;;;;;;;;5034652;28;20279;-82
2022/09/05 15:51:36;;;;;;;0.60;0.60;;;;;;;;;;5034991;28;20206;-83
2022/09/05 15:54:05;;;;;;;0.70;0.70;;;;;;;;;;5034761;28;20207;-83
2022/09/05 15:56:38;;;;;;;0.63;0.63;;;;;;;;;;5035054;28;20203;-83
2022/09/05 15:59:06;;;;;;;3.33;3.17;;;;;;;;;;5034686;28;20214;-83
2022/09/05 16:01:36;;;;;;;0.90;0.90;;;;;;;;;;5051327;28;20199;-83
2022/09/05 16:04:27;;;;;;;1.27;1.13;;;;;;;;;;5042256;28;20202;-83
2022/09/05 16:07:17;;;;;;;2.83;2.53;;;;;;;;;;5034243;28;20293;-83
2022/09/05 16:10:07;;;;;;;3.17;1.07;;;;;;;;;;5034398;28;20194;-83
2022/09/05 16:12:56;;;;;;;0.50;0.50;;;;;;;;;;5052485;28;20202;-83
2022/09/05 16:15:25;;;;;;;1.27;1.17;;;;;;;;;;5022111;28;20202;-83
2022/09/05 16:18:15;;;;;;;7.60;2.87;;;;;;;;;;5034017;28;20206;-82
2022/09/05 16:21:07;;;;;;;0.40;0.40;;;;;;;;;;5052710;28;20241;-81
2022/09/05 16:23:58;;;;;;;0.40;0.40;;;;;;;;;;5031495;28;20193;-82
2022/09/05 16:26:34;;;;;;;0.30;0.30;;;;;;;;;;5052351;28;20205;-82
2022/09/05 16:29:05;;;;;;;0.57;0.57;;;;;;;;;;5041885;28;20216;-82
2022/09/05 16:31:38;;;;;;;2.40;2.20;;;;;;;;;;5051671;28;20210;-82
2022/09/05 16:34:08;;;;;;;0.20;0.20;;;;;;;;;;5052023;28;20248;-82
2022/09/05 16:36:50;;;;;;;0.33;0.33;;;;;;;;;;5052821;28;20223;-82